Air Quality Table

TIMESTAMP NO2 SO2 O3 PM10 PM2.5 CO TEMP HUM WS WD NO
2021-07-30 23:00 0.41 ug/m3 0.45 ug/m3 97.39 ug/m3 19.29 ug/m3 8.01 ug/m3 0.16 mg/m3 27.29 C 76.94 % 4.19 m/s 207.64 Deg -0.01 ug/m3
2021-07-30 22:00 1.57 ug/m3 0.92 ug/m3 98.86 ug/m3 21.27 ug/m3 8.14 ug/m3 0.16 mg/m3 28.12 C 67.15 % 4.42 m/s 210.68 Deg 0 ug/m3
2021-07-30 21:00 1.95 ug/m3 1.37 ug/m3 104.37 ug/m3 21.71 ug/m3 7.66 ug/m3 0.15 mg/m3 29.02 C 54.66 % 4.78 m/s 206.89 Deg -0.02 ug/m3
2021-07-30 20:00 1.38 ug/m3 1.32 ug/m3 104.26 ug/m3 22.16 ug/m3 8 ug/m3 0.15 mg/m3 29.33 C 50.91 % 4.95 m/s 205.13 Deg -0.01 ug/m3
2021-07-30 19:00 0.69 ug/m3 0.91 ug/m3 101.04 ug/m3 20.55 ug/m3 7 ug/m3 0.14 mg/m3 29.56 C 51.76 % 5.09 m/s 208.45 Deg 0 ug/m3
2021-07-30 18:00 0.4 ug/m3 0.61 ug/m3 98.97 ug/m3 16.37 ug/m3 5.84 ug/m3 0.15 mg/m3 29.47 C 57.25 % 4.74 m/s 211.78 Deg 0.03 ug/m3
2021-07-30 17:00 0.17 ug/m3 0.54 ug/m3 93.86 ug/m3 14.07 ug/m3 5.66 ug/m3 0.16 mg/m3 28.6 C 70.75 % 4.7 m/s 211.48 Deg 0.03 ug/m3
2021-07-30 16:00 0.18 ug/m3 0.69 ug/m3 92.8 ug/m3 13.71 ug/m3 6 ug/m3 0.16 mg/m3 28.97 C 69.15 % 4.74 m/s 215.37 Deg 0.02 ug/m3
2021-07-30 15:00 0.63 ug/m3 0.88 ug/m3 98.23 ug/m3 11.41 ug/m3 6.14 ug/m3 0.16 mg/m3 28.72 C 71.23 % 4.75 m/s 212.78 Deg 0.09 ug/m3
2021-07-30 14:00 0.13 ug/m3 0.68 ug/m3 97.19 ug/m3 11.41 ug/m3 6.39 ug/m3 0.16 mg/m3 28.54 C 73.98 % 4.41 m/s 215.8 Deg 0.03 ug/m3
2021-07-30 13:00 0.31 ug/m3 1.07 ug/m3 100.37 ug/m3 11.09 ug/m3 5.42 ug/m3 0.16 mg/m3 28.61 C 70.52 % 4.37 m/s 214.62 Deg 0.04 ug/m3
2021-07-30 12:00 0.68 ug/m3 0.94 ug/m3 105.45 ug/m3 11.47 ug/m3 5.49 ug/m3 0.16 mg/m3 28.43 C 70.81 % 4.32 m/s 216.52 Deg 0.09 ug/m3
2021-07-30 11:00 0.69 ug/m3 1.18 ug/m3 107.57 ug/m3 11.51 ug/m3 5.37 ug/m3 0.16 mg/m3 28.53 C 66.29 % 4.17 m/s 221.92 Deg 0.04 ug/m3
2021-07-30 10:00 1.55 ug/m3 1.94 ug/m3 118.57 ug/m3 13.12 ug/m3 5.68 ug/m3 0.15 mg/m3 29.11 C 53.07 % 3.95 m/s 216.85 Deg 0.02 ug/m3
2021-07-30 09:00 2.6 ug/m3 1.93 ug/m3 124.44 ug/m3 13.9 ug/m3 5.16 ug/m3 0.15 mg/m3 29.73 C 40.7 % 3.29 m/s 224.49 Deg 1.43 ug/m3
2021-07-30 08:00 2.6 ug/m3 1.26 ug/m3 129.21 ug/m3 12.96 ug/m3 5.07 ug/m3 0.15 mg/m3 29.61 C 35.18 % 2.83 m/s 258.47 Deg -0.01 ug/m3
2021-07-30 07:00 3.69 ug/m3 1.58 ug/m3 117.82 ug/m3 9.85 ug/m3 5.05 ug/m3 0.16 mg/m3 28.26 C 45.15 % 2.43 m/s 266.41 Deg 0.1 ug/m3
2021-07-30 06:00 3.97 ug/m3 0.98 ug/m3 98.63 ug/m3 8.64 ug/m3 5.59 ug/m3 0.16 mg/m3 26.57 C 68.47 % 2.75 m/s 242.73 Deg 0.12 ug/m3
2021-07-30 05:00 0.45 ug/m3 0.52 ug/m3 90 ug/m3 7.87 ug/m3 5.39 ug/m3 0.15 mg/m3 25.92 C 82.12 % 2.91 m/s 240.95 Deg -0.01 ug/m3
2021-07-30 04:00 5.36 ug/m3 0.71 ug/m3 82.4 ug/m3 8.32 ug/m3 5.19 ug/m3 0.16 mg/m3 25.78 C 83.19 % 2.18 m/s 234.1 Deg -0.01 ug/m3
2021-07-30 03:00 0.77 ug/m3 0.46 ug/m3 88.43 ug/m3 9.21 ug/m3 5.13 ug/m3 0.15 mg/m3 26.11 C 80.38 % 1.45 m/s 226.83 Deg -0.02 ug/m3
2021-07-30 02:00 0.77 ug/m3 1.42 ug/m3 107.27 ug/m3 9.15 ug/m3 5.43 ug/m3 0.14 mg/m3 27.3 C 62.5 % 1.36 m/s 231.09 Deg -0.02 ug/m3

It is to be noted that the data is provisional and subject to quality assurance procedures. For validated data kindly refer your request to contact.air@era.org.mt